sensor_id;sensor_type;location;lat;lon;timestamp;P1;durP1;ratioP1;P2;durP2;ratioP2
17915;SDS011;9083;49.156;8.982;2022-12-07T00:01:57;12.10;;;6.40;;
17915;SDS011;9083;49.156;8.982;2022-12-07T00:04:23;10.87;;;7.10;;
17915;SDS011;9083;49.156;8.982;2022-12-07T00:06:52;9.30;;;6.30;;
17915;SDS011;9083;49.156;8.982;2022-12-07T00:09:18;11.73;;;5.87;;
17915;SDS011;9083;49.156;8.982;2022-12-07T00:11:47;11.13;;;5.70;;
17915;SDS011;9083;49.156;8.982;2022-12-07T00:14:14;7.63;;;5.87;;
17915;SDS011;9083;49.156;8.982;2022-12-07T00:16:41;8.30;;;5.40;;
17915;SDS011;9083;49.156;8.982;2022-12-07T00:19:08;8.63;;;5.70;;
17915;SDS011;9083;49.156;8.982;2022-12-07T00:21:36;8.50;;;5.63;;
17915;SDS011;9083;49.156;8.982;2022-12-07T00:24:04;11.47;;;5.57;;
17915;SDS011;9083;49.156;8.982;2022-12-07T00:26:31;9.57;;;6.23;;
17915;SDS011;9083;49.156;8.982;2022-12-07T00:28:59;8.90;;;5.87;;
17915;SDS011;9083;49.156;8.982;2022-12-07T00:31:26;10.23;;;6.20;;
17915;SDS011;9083;49.156;8.982;2022-12-07T00:33:53;11.77;;;5.40;;
17915;SDS011;9083;49.156;8.982;2022-12-07T00:36:20;11.93;;;6.03;;
17915;SDS011;9083;49.156;8.982;2022-12-07T00:38:47;8.33;;;6.10;;
17915;SDS011;9083;49.156;8.982;2022-12-07T00:41:16;11.37;;;6.63;;
17915;SDS011;9083;49.156;8.982;2022-12-07T00:43:43;11.43;;;6.70;;
17915;SDS011;9083;49.156;8.982;2022-12-07T00:46:09;11.07;;;7.27;;
17915;SDS011;9083;49.156;8.982;2022-12-07T00:48:36;15.53;;;7.63;;
17915;SDS011;9083;49.156;8.982;2022-12-07T00:51:03;13.30;;;6.63;;
17915;SDS011;9083;49.156;8.982;2022-12-07T00:53:29;10.87;;;6.00;;
17915;SDS011;9083;49.156;8.982;2022-12-07T00:55:56;10.77;;;6.90;;
17915;SDS011;9083;49.156;8.982;2022-12-07T00:58:24;10.83;;;7.17;;
17915;SDS011;9083;49.156;8.982;2022-12-07T01:00:50;11.57;;;6.73;;
17915;SDS011;9083;49.156;8.982;2022-12-07T01:03:17;9.67;;;6.83;;
17915;SDS011;9083;49.156;8.982;2022-12-07T01:05:48;10.97;;;7.00;;
17915;SDS011;9083;49.156;8.982;2022-12-07T01:08:15;10.53;;;6.67;;
17915;SDS011;9083;49.156;8.982;2022-12-07T01:10:41;14.23;;;6.83;;
17915;SDS011;9083;49.156;8.982;2022-12-07T01:13:08;10.77;;;6.10;;
17915;SDS011;9083;49.156;8.982;2022-12-07T01:15:36;10.87;;;7.50;;
17915;SDS011;9083;49.156;8.982;2022-12-07T01:18:04;10.43;;;7.00;;
17915;SDS011;9083;49.156;8.982;2022-12-07T01:20:31;11.17;;;7.00;;
17915;SDS011;9083;49.156;8.982;2022-12-07T01:22:57;11.07;;;6.93;;
17915;SDS011;9083;49.156;8.982;2022-12-07T01:25:24;15.53;;;8.03;;
17915;SDS011;9083;49.156;8.982;2022-12-07T01:27:50;15.00;;;7.93;;
17915;SDS011;9083;49.156;8.982;2022-12-07T01:30:16;20.50;;;8.27;;
17915;SDS011;9083;49.156;8.982;2022-12-07T01:32:44;16.47;;;8.23;;
17915;SDS011;9083;49.156;8.982;2022-12-07T01:35:11;11.33;;;7.40;;
17915;SDS011;9083;49.156;8.982;2022-12-07T01:37:37;10.30;;;7.30;;
17915;SDS011;9083;49.156;8.982;2022-12-07T01:40:05;12.83;;;8.10;;
17915;SDS011;9083;49.156;8.982;2022-12-07T01:42:32;11.53;;;8.23;;
17915;SDS011;9083;49.156;8.982;2022-12-07T01:47:54;11.07;;;7.83;;
17915;SDS011;9083;49.156;8.982;2022-12-07T01:50:22;15.20;;;8.50;;
17915;SDS011;9083;49.156;8.982;2022-12-07T01:52:50;12.43;;;8.07;;
17915;SDS011;9083;49.156;8.982;2022-12-07T01:55:17;11.27;;;7.47;;
17915;SDS011;9083;49.156;8.982;2022-12-07T01:57:45;13.20;;;7.37;;
17915;SDS011;9083;49.156;8.982;2022-12-07T02:00:14;11.43;;;7.30;;
17915;SDS011;9083;49.156;8.982;2022-12-07T02:02:41;11.63;;;7.27;;
17915;SDS011;9083;49.156;8.982;2022-12-07T02:05:10;13.37;;;7.57;;
17915;SDS011;9083;49.156;8.982;2022-12-07T02:07:36;11.77;;;6.97;;
17915;SDS011;9083;49.156;8.982;2022-12-07T02:10:11;10.90;;;7.30;;
17915;SDS011;9083;49.156;8.982;2022-12-07T02:12:38;12.90;;;7.53;;
17915;SDS011;9083;49.156;8.982;2022-12-07T02:15:05;10.13;;;7.17;;
17915;SDS011;9083;49.156;8.982;2022-12-07T02:17:31;12.47;;;7.20;;
17915;SDS011;9083;49.156;8.982;2022-12-07T02:20:11;17.70;;;8.03;;
17915;SDS011;9083;49.156;8.982;2022-12-07T02:22:46;15.00;;;8.77;;
17915;SDS011;9083;49.156;8.982;2022-12-07T02:25:17;12.33;;;8.13;;
17915;SDS011;9083;49.156;8.982;2022-12-07T02:27:47;14.43;;;8.20;;
17915;SDS011;9083;49.156;8.982;2022-12-07T02:30:17;11.93;;;7.60;;
17915;SDS011;9083;49.156;8.982;2022-12-07T02:32:46;15.17;;;7.63;;
17915;SDS011;9083;49.156;8.982;2022-12-07T02:35:17;13.53;;;7.60;;
17915;SDS011;9083;49.156;8.982;2022-12-07T02:37:48;14.63;;;8.80;;
17915;SDS011;9083;49.156;8.982;2022-12-07T02:40:17;15.17;;;8.27;;
17915;SDS011;9083;49.156;8.982;2022-12-07T02:42:45;12.40;;;7.47;;
17915;SDS011;9083;49.156;8.982;2022-12-07T02:45:13;12.97;;;8.20;;
17915;SDS011;9083;49.156;8.982;2022-12-07T02:47:41;13.90;;;7.90;;
17915;SDS011;9083;49.156;8.982;2022-12-07T02:50:09;14.17;;;8.43;;
17915;SDS011;9083;49.156;8.982;2022-12-07T02:52:36;13.67;;;8.43;;
17915;SDS011;9083;49.156;8.982;2022-12-07T02:55:03;14.33;;;8.30;;
17915;SDS011;9083;49.156;8.982;2022-12-07T02:57:35;13.23;;;7.50;;
17915;SDS011;9083;49.156;8.982;2022-12-07T03:00:04;11.90;;;7.50;;
17915;SDS011;9083;49.156;8.982;2022-12-07T03:02:35;14.07;;;7.30;;
17915;SDS011;9083;49.156;8.982;2022-12-07T03:05:09;12.03;;;7.03;;
17915;SDS011;9083;49.156;8.982;2022-12-07T03:07:39;12.00;;;7.57;;
17915;SDS011;9083;49.156;8.982;2022-12-07T03:10:10;12.47;;;6.73;;
17915;SDS011;9083;49.156;8.982;2022-12-07T03:12:42;17.03;;;8.70;;
17915;SDS011;9083;49.156;8.982;2022-12-07T03:15:12;12.80;;;7.40;;
17915;SDS011;9083;49.156;8.982;2022-12-07T03:17:41;13.50;;;8.33;;
17915;SDS011;9083;49.156;8.982;2022-12-07T03:20:11;14.13;;;8.70;;
17915;SDS011;9083;49.156;8.982;2022-12-07T03:22:39;11.83;;;7.83;;
17915;SDS011;9083;49.156;8.982;2022-12-07T03:25:08;13.50;;;8.37;;
17915;SDS011;9083;49.156;8.982;2022-12-07T03:27:36;15.70;;;8.23;;
17915;SDS011;9083;49.156;8.982;2022-12-07T03:30:03;14.73;;;8.60;;
17915;SDS011;9083;49.156;8.982;2022-12-07T03:32:32;13.10;;;7.43;;
17915;SDS011;9083;49.156;8.982;2022-12-07T03:35:01;13.83;;;8.20;;
17915;SDS011;9083;49.156;8.982;2022-12-07T03:37:31;15.17;;;7.97;;
17915;SDS011;9083;49.156;8.982;2022-12-07T03:40:02;12.30;;;7.60;;
17915;SDS011;9083;49.156;8.982;2022-12-07T03:42:30;18.70;;;8.60;;
17915;SDS011;9083;49.156;8.982;2022-12-07T03:44:57;12.13;;;8.40;;
17915;SDS011;9083;49.156;8.982;2022-12-07T03:47:25;15.03;;;8.23;;
17915;SDS011;9083;49.156;8.982;2022-12-07T03:49:53;14.53;;;8.30;;
17915;SDS011;9083;49.156;8.982;2022-12-07T03:52:22;15.67;;;9.03;;
17915;SDS011;9083;49.156;8.982;2022-12-07T03:54:54;13.97;;;8.93;;
17915;SDS011;9083;49.156;8.982;2022-12-07T03:57:21;14.10;;;7.77;;
17915;SDS011;9083;49.156;8.982;2022-12-07T03:59:48;14.23;;;8.73;;
17915;SDS011;9083;49.156;8.982;2022-12-07T04:02:15;18.27;;;9.80;;
17915;SDS011;9083;49.156;8.982;2022-12-07T04:04:42;17.07;;;8.93;;
17915;SDS011;9083;49.156;8.982;2022-12-07T04:07:09;14.87;;;8.10;;
17915;SDS011;9083;49.156;8.982;2022-12-07T04:09:35;13.43;;;7.83;;
17915;SDS011;9083;49.156;8.982;2022-12-07T04:12:03;14.47;;;8.83;;
17915;SDS011;9083;49.156;8.982;2022-12-07T04:14:30;18.30;;;9.50;;
17915;SDS011;9083;49.156;8.982;2022-12-07T04:16:57;13.17;;;7.77;;
17915;SDS011;9083;49.156;8.982;2022-12-07T04:19:24;15.27;;;7.67;;
17915;SDS011;9083;49.156;8.982;2022-12-07T04:21:51;17.00;;;8.70;;
17915;SDS011;9083;49.156;8.982;2022-12-07T04:24:17;12.60;;;7.80;;
17915;SDS011;9083;49.156;8.982;2022-12-07T04:26:44;14.27;;;8.07;;
17915;SDS011;9083;49.156;8.982;2022-12-07T04:29:12;13.80;;;8.47;;
17915;SDS011;9083;49.156;8.982;2022-12-07T04:31:38;16.07;;;8.27;;
17915;SDS011;9083;49.156;8.982;2022-12-07T04:34:05;13.83;;;8.03;;
17915;SDS011;9083;49.156;8.982;2022-12-07T04:36:31;14.83;;;8.57;;
17915;SDS011;9083;49.156;8.982;2022-12-07T04:38:58;13.23;;;8.07;;
17915;SDS011;9083;49.156;8.982;2022-12-07T04:41:25;15.37;;;8.40;;
17915;SDS011;9083;49.156;8.982;2022-12-07T04:43:53;13.93;;;8.20;;
17915;SDS011;9083;49.156;8.982;2022-12-07T04:46:21;13.57;;;8.10;;
17915;SDS011;9083;49.156;8.982;2022-12-07T04:48:48;14.13;;;8.30;;
17915;SDS011;9083;49.156;8.982;2022-12-07T04:51:15;15.70;;;8.73;;
17915;SDS011;9083;49.156;8.982;2022-12-07T04:53:44;13.80;;;7.57;;
17915;SDS011;9083;49.156;8.982;2022-12-07T04:56:11;15.47;;;8.13;;
17915;SDS011;9083;49.156;8.982;2022-12-07T04:58:37;12.80;;;8.07;;
17915;SDS011;9083;49.156;8.982;2022-12-07T05:01:03;14.53;;;8.20;;
17915;SDS011;9083;49.156;8.982;2022-12-07T05:03:31;14.83;;;7.40;;
17915;SDS011;9083;49.156;8.982;2022-12-07T05:05:58;10.87;;;7.03;;
17915;SDS011;9083;49.156;8.982;2022-12-07T05:08:24;16.63;;;8.27;;
17915;SDS011;9083;49.156;8.982;2022-12-07T05:10:51;10.27;;;6.67;;
17915;SDS011;9083;49.156;8.982;2022-12-07T05:13:17;13.30;;;7.67;;
17915;SDS011;9083;49.156;8.982;2022-12-07T05:15:44;13.80;;;8.37;;
17915;SDS011;9083;49.156;8.982;2022-12-07T05:18:10;11.93;;;7.57;;
17915;SDS011;9083;49.156;8.982;2022-12-07T05:20:38;16.80;;;8.50;;
17915;SDS011;9083;49.156;8.982;2022-12-07T05:23:05;13.80;;;7.70;;
17915;SDS011;9083;49.156;8.982;2022-12-07T05:25:31;14.60;;;7.87;;
17915;SDS011;9083;49.156;8.982;2022-12-07T05:27:58;9.93;;;6.70;;
17915;SDS011;9083;49.156;8.982;2022-12-07T05:30:25;15.17;;;8.53;;
17915;SDS011;9083;49.156;8.982;2022-12-07T05:32:51;14.30;;;7.87;;
17915;SDS011;9083;49.156;8.982;2022-12-07T05:35:18;13.77;;;8.40;;
17915;SDS011;9083;49.156;8.982;2022-12-07T05:37:46;14.73;;;7.97;;
17915;SDS011;9083;49.156;8.982;2022-12-07T05:40:13;16.07;;;7.87;;
17915;SDS011;9083;49.156;8.982;2022-12-07T05:42:39;13.13;;;8.07;;
17915;SDS011;9083;49.156;8.982;2022-12-07T05:45:06;12.30;;;7.73;;
17915;SDS011;9083;49.156;8.982;2022-12-07T05:47:33;13.83;;;7.67;;
17915;SDS011;9083;49.156;8.982;2022-12-07T05:49:59;14.63;;;8.20;;
17915;SDS011;9083;49.156;8.982;2022-12-07T05:52:25;16.23;;;8.40;;
17915;SDS011;9083;49.156;8.982;2022-12-07T05:54:53;15.93;;;8.87;;
17915;SDS011;9083;49.156;8.982;2022-12-07T05:57:20;17.13;;;8.60;;
17915;SDS011;9083;49.156;8.982;2022-12-07T05:59:46;15.87;;;8.23;;
17915;SDS011;9083;49.156;8.982;2022-12-07T06:02:12;16.43;;;8.73;;
17915;SDS011;9083;49.156;8.982;2022-12-07T06:04:41;16.10;;;9.33;;
17915;SDS011;9083;49.156;8.982;2022-12-07T06:07:08;18.77;;;9.63;;
17915;SDS011;9083;49.156;8.982;2022-12-07T06:09:35;14.47;;;8.70;;
17915;SDS011;9083;49.156;8.982;2022-12-07T06:12:03;13.97;;;8.20;;
17915;SDS011;9083;49.156;8.982;2022-12-07T06:14:47;14.00;;;8.70;;
17915;SDS011;9083;49.156;8.982;2022-12-07T06:17:14;15.50;;;7.77;;
17915;SDS011;9083;49.156;8.982;2022-12-07T06:19:41;14.17;;;8.57;;
17915;SDS011;9083;49.156;8.982;2022-12-07T06:22:08;15.03;;;9.10;;
17915;SDS011;9083;49.156;8.982;2022-12-07T06:24:36;14.40;;;8.90;;
17915;SDS011;9083;49.156;8.982;2022-12-07T06:27:04;17.27;;;9.40;;
17915;SDS011;9083;49.156;8.982;2022-12-07T06:29:31;17.97;;;9.17;;
17915;SDS011;9083;49.156;8.982;2022-12-07T06:31:57;20.80;;;9.47;;
17915;SDS011;9083;49.156;8.982;2022-12-07T06:34:24;18.80;;;9.43;;
17915;SDS011;9083;49.156;8.982;2022-12-07T06:36:51;16.33;;;8.87;;
17915;SDS011;9083;49.156;8.982;2022-12-07T06:39:19;18.53;;;9.23;;
17915;SDS011;9083;49.156;8.982;2022-12-07T06:41:45;17.47;;;9.43;;
17915;SDS011;9083;49.156;8.982;2022-12-07T06:44:13;16.40;;;8.90;;
17915;SDS011;9083;49.156;8.982;2022-12-07T06:46:40;16.33;;;9.17;;
17915;SDS011;9083;49.156;8.982;2022-12-07T06:49:06;18.93;;;9.83;;
17915;SDS011;9083;49.156;8.982;2022-12-07T06:51:33;15.60;;;9.67;;
17915;SDS011;9083;49.156;8.982;2022-12-07T06:54:01;18.30;;;8.67;;
17915;SDS011;9083;49.156;8.982;2022-12-07T06:56:27;17.73;;;9.73;;
17915;SDS011;9083;49.156;8.982;2022-12-07T06:58:54;17.33;;;8.90;;
17915;SDS011;9083;49.156;8.982;2022-12-07T07:01:22;19.23;;;10.13;;
17915;SDS011;9083;49.156;8.982;2022-12-07T07:03:49;30.93;;;16.60;;
17915;SDS011;9083;49.156;8.982;2022-12-07T07:06:15;26.77;;;13.60;;
17915;SDS011;9083;49.156;8.982;2022-12-07T07:08:41;15.73;;;9.67;;
17915;SDS011;9083;49.156;8.982;2022-12-07T07:11:08;35.40;;;13.43;;
17915;SDS011;9083;49.156;8.982;2022-12-07T07:13:34;20.03;;;11.00;;
17915;SDS011;9083;49.156;8.982;2022-12-07T07:16:01;27.23;;;14.10;;
17915;SDS011;9083;49.156;8.982;2022-12-07T07:18:29;29.03;;;14.43;;
17915;SDS011;9083;49.156;8.982;2022-12-07T07:20:55;35.47;;;14.20;;
17915;SDS011;9083;49.156;8.982;2022-12-07T07:23:22;32.50;;;14.50;;
17915;SDS011;9083;49.156;8.982;2022-12-07T07:25:48;30.37;;;14.17;;
17915;SDS011;9083;49.156;8.982;2022-12-07T07:28:15;32.23;;;12.63;;
17915;SDS011;9083;49.156;8.982;2022-12-07T07:30:41;25.37;;;10.93;;
17915;SDS011;9083;49.156;8.982;2022-12-07T07:33:09;40.93;;;13.93;;
17915;SDS011;9083;49.156;8.982;2022-12-07T07:35:37;24.57;;;11.03;;
17915;SDS011;9083;49.156;8.982;2022-12-07T07:38:04;25.93;;;11.80;;
17915;SDS011;9083;49.156;8.982;2022-12-07T07:40:30;21.80;;;11.37;;
17915;SDS011;9083;49.156;8.982;2022-12-07T07:42:56;22.37;;;10.77;;
17915;SDS011;9083;49.156;8.982;2022-12-07T07:45:24;19.23;;;9.23;;
17915;SDS011;9083;49.156;8.982;2022-12-07T07:47:50;15.50;;;9.80;;
17915;SDS011;9083;49.156;8.982;2022-12-07T07:50:17;17.70;;;10.50;;
17915;SDS011;9083;49.156;8.982;2022-12-07T07:52:45;18.93;;;11.07;;
17915;SDS011;9083;49.156;8.982;2022-12-07T07:55:12;24.83;;;10.70;;
17915;SDS011;9083;49.156;8.982;2022-12-07T07:57:39;27.50;;;10.23;;
17915;SDS011;9083;49.156;8.982;2022-12-07T08:00:06;25.00;;;10.20;;
17915;SDS011;9083;49.156;8.982;2022-12-07T08:02:33;20.43;;;11.53;;
17915;SDS011;9083;49.156;8.982;2022-12-07T08:05:00;20.13;;;9.97;;
17915;SDS011;9083;49.156;8.982;2022-12-07T08:07:26;22.57;;;10.60;;
17915;SDS011;9083;49.156;8.982;2022-12-07T08:09:54;19.93;;;8.90;;
17915;SDS011;9083;49.156;8.982;2022-12-07T08:12:21;18.57;;;9.53;;
17915;SDS011;9083;49.156;8.982;2022-12-07T08:14:47;17.27;;;9.77;;
17915;SDS011;9083;49.156;8.982;2022-12-07T08:17:14;18.87;;;11.07;;
17915;SDS011;9083;49.156;8.982;2022-12-07T08:19:40;23.00;;;10.43;;
17915;SDS011;9083;49.156;8.982;2022-12-07T08:22:07;19.47;;;10.03;;
17915;SDS011;9083;49.156;8.982;2022-12-07T08:24:33;21.13;;;10.37;;
17915;SDS011;9083;49.156;8.982;2022-12-07T08:27:02;22.20;;;9.77;;
17915;SDS011;9083;49.156;8.982;2022-12-07T08:29:29;21.20;;;8.70;;
17915;SDS011;9083;49.156;8.982;2022-12-07T08:31:55;22.83;;;10.13;;
17915;SDS011;9083;49.156;8.982;2022-12-07T08:34:22;16.97;;;10.70;;
17915;SDS011;9083;49.156;8.982;2022-12-07T08:36:51;19.77;;;11.03;;
17915;SDS011;9083;49.156;8.982;2022-12-07T08:39:18;23.07;;;10.47;;
17915;SDS011;9083;49.156;8.982;2022-12-07T08:41:44;16.00;;;9.43;;
17915;SDS011;9083;49.156;8.982;2022-12-07T08:44:12;17.60;;;9.17;;
17915;SDS011;9083;49.156;8.982;2022-12-07T08:46:39;20.20;;;9.60;;
17915;SDS011;9083;49.156;8.982;2022-12-07T08:49:07;30.10;;;14.97;;
17915;SDS011;9083;49.156;8.982;2022-12-07T08:51:35;23.23;;;10.90;;
17915;SDS011;9083;49.156;8.982;2022-12-07T08:54:03;21.07;;;10.97;;
17915;SDS011;9083;49.156;8.982;2022-12-07T08:56:30;22.27;;;10.43;;
17915;SDS011;9083;49.156;8.982;2022-12-07T08:58:57;18.90;;;10.23;;
17915;SDS011;9083;49.156;8.982;2022-12-07T09:01:24;19.37;;;9.47;;
17915;SDS011;9083;49.156;8.982;2022-12-07T09:03:52;20.90;;;10.20;;
17915;SDS011;9083;49.156;8.982;2022-12-07T09:06:18;21.93;;;12.03;;
17915;SDS011;9083;49.156;8.982;2022-12-07T09:08:45;18.57;;;10.10;;
17915;SDS011;9083;49.156;8.982;2022-12-07T09:11:15;19.00;;;10.20;;
17915;SDS011;9083;49.156;8.982;2022-12-07T09:13:41;25.03;;;11.97;;
17915;SDS011;9083;49.156;8.982;2022-12-07T09:16:08;19.87;;;9.27;;
17915;SDS011;9083;49.156;8.982;2022-12-07T09:18:36;18.37;;;9.70;;
17915;SDS011;9083;49.156;8.982;2022-12-07T09:21:03;18.20;;;10.17;;
17915;SDS011;9083;49.156;8.982;2022-12-07T09:23:29;15.43;;;9.17;;
17915;SDS011;9083;49.156;8.982;2022-12-07T09:25:58;16.07;;;8.37;;
17915;SDS011;9083;49.156;8.982;2022-12-07T09:28:25;17.80;;;9.07;;
17915;SDS011;9083;49.156;8.982;2022-12-07T09:30:51;16.70;;;8.57;;
17915;SDS011;9083;49.156;8.982;2022-12-07T09:33:18;13.40;;;7.37;;
17915;SDS011;9083;49.156;8.982;2022-12-07T09:35:50;25.00;;;10.83;;
17915;SDS011;9083;49.156;8.982;2022-12-07T09:38:17;12.67;;;7.67;;
17915;SDS011;9083;49.156;8.982;2022-12-07T09:40:44;16.17;;;8.63;;
17915;SDS011;9083;49.156;8.982;2022-12-07T09:43:11;16.87;;;8.73;;
17915;SDS011;9083;49.156;8.982;2022-12-07T09:45:39;13.93;;;8.37;;
17915;SDS011;9083;49.156;8.982;2022-12-07T09:48:08;14.30;;;7.60;;
17915;SDS011;9083;49.156;8.982;2022-12-07T09:50:38;13.43;;;7.30;;
17915;SDS011;9083;49.156;8.982;2022-12-07T09:53:08;14.10;;;7.33;;
17915;SDS011;9083;49.156;8.982;2022-12-07T09:55:36;10.63;;;6.93;;
17915;SDS011;9083;49.156;8.982;2022-12-07T09:58:04;16.90;;;7.67;;
17915;SDS011;9083;49.156;8.982;2022-12-07T10:00:30;15.80;;;8.30;;
17915;SDS011;9083;49.156;8.982;2022-12-07T10:02:57;14.80;;;7.80;;
17915;SDS011;9083;49.156;8.982;2022-12-07T10:05:25;14.77;;;8.30;;
17915;SDS011;9083;49.156;8.982;2022-12-07T10:07:53;14.47;;;7.77;;
17915;SDS011;9083;49.156;8.982;2022-12-07T10:10:22;15.43;;;7.80;;
17915;SDS011;9083;49.156;8.982;2022-12-07T10:12:53;13.83;;;8.40;;
17915;SDS011;9083;49.156;8.982;2022-12-07T10:15:20;20.33;;;9.57;;
17915;SDS011;9083;49.156;8.982;2022-12-07T10:17:47;12.43;;;7.70;;
17915;SDS011;9083;49.156;8.982;2022-12-07T10:20:16;17.17;;;7.87;;
17915;SDS011;9083;49.156;8.982;2022-12-07T10:25:27;15.07;;;7.83;;
17915;SDS011;9083;49.156;8.982;2022-12-07T10:28:03;12.20;;;7.83;;
17915;SDS011;9083;49.156;8.982;2022-12-07T10:30:45;14.87;;;7.47;;
17915;SDS011;9083;49.156;8.982;2022-12-07T10:33:15;13.57;;;7.90;;
17915;SDS011;9083;49.156;8.982;2022-12-07T10:35:47;12.83;;;8.20;;
17915;SDS011;9083;49.156;8.982;2022-12-07T10:38:15;16.63;;;8.87;;
17915;SDS011;9083;49.156;8.982;2022-12-07T10:40:43;14.73;;;8.03;;
17915;SDS011;9083;49.156;8.982;2022-12-07T10:43:15;17.13;;;8.63;;
17915;SDS011;9083;49.156;8.982;2022-12-07T10:45:59;12.33;;;6.93;;
17915;SDS011;9083;49.156;8.982;2022-12-07T10:48:33;15.97;;;8.20;;
17915;SDS011;9083;49.156;8.982;2022-12-07T10:51:02;13.57;;;7.90;;
17915;SDS011;9083;49.156;8.982;2022-12-07T10:53:36;15.13;;;7.93;;
17915;SDS011;9083;49.156;8.982;2022-12-07T10:56:14;20.77;;;7.90;;
17915;SDS011;9083;49.156;8.982;2022-12-07T10:58:50;14.50;;;8.67;;
17915;SDS011;9083;49.156;8.982;2022-12-07T11:01:18;14.27;;;8.40;;
17915;SDS011;9083;49.156;8.982;2022-12-07T11:03:49;20.63;;;8.80;;
17915;SDS011;9083;49.156;8.982;2022-12-07T11:06:22;14.27;;;7.90;;
17915;SDS011;9083;49.156;8.982;2022-12-07T11:09:00;14.63;;;8.53;;
17915;SDS011;9083;49.156;8.982;2022-12-07T11:11:32;17.10;;;8.30;;
17915;SDS011;9083;49.156;8.982;2022-12-07T11:14:01;15.63;;;8.73;;
17915;SDS011;9083;49.156;8.982;2022-12-07T11:16:34;14.60;;;8.60;;
17915;SDS011;9083;49.156;8.982;2022-12-07T11:19:06;14.40;;;7.93;;
17915;SDS011;9083;49.156;8.982;2022-12-07T11:21:41;31.23;;;13.23;;
17915;SDS011;9083;49.156;8.982;2022-12-07T11:24:11;21.23;;;10.13;;
17915;SDS011;9083;49.156;8.982;2022-12-07T11:26:45;17.93;;;9.43;;
17915;SDS011;9083;49.156;8.982;2022-12-07T11:29:19;18.27;;;9.63;;
17915;SDS011;9083;49.156;8.982;2022-12-07T11:31:52;14.67;;;8.70;;
17915;SDS011;9083;49.156;8.982;2022-12-07T11:34:23;19.33;;;9.47;;
17915;SDS011;9083;49.156;8.982;2022-12-07T11:36:53;15.57;;;8.17;;
17915;SDS011;9083;49.156;8.982;2022-12-07T11:39:22;13.27;;;7.80;;
17915;SDS011;9083;49.156;8.982;2022-12-07T11:41:54;15.37;;;8.97;;
17915;SDS011;9083;49.156;8.982;2022-12-07T11:44:24;16.17;;;8.13;;
17915;SDS011;9083;49.156;8.982;2022-12-07T11:46:54;18.30;;;9.77;;
17915;SDS011;9083;49.156;8.982;2022-12-07T11:49:23;15.47;;;8.20;;
17915;SDS011;9083;49.156;8.982;2022-12-07T11:51:54;15.10;;;8.83;;
17915;SDS011;9083;49.156;8.982;2022-12-07T11:54:23;13.77;;;8.43;;
17915;SDS011;9083;49.156;8.982;2022-12-07T11:56:53;15.57;;;9.00;;
17915;SDS011;9083;49.156;8.982;2022-12-07T11:59:23;14.57;;;8.50;;
17915;SDS011;9083;49.156;8.982;2022-12-07T12:01:51;16.00;;;9.23;;
17915;SDS011;9083;49.156;8.982;2022-12-07T12:04:30;16.43;;;8.33;;
17915;SDS011;9083;49.156;8.982;2022-12-07T12:06:58;16.33;;;10.23;;
17915;SDS011;9083;49.156;8.982;2022-12-07T12:09:26;16.53;;;9.27;;
17915;SDS011;9083;49.156;8.982;2022-12-07T12:12:01;18.03;;;8.80;;
17915;SDS011;9083;49.156;8.982;2022-12-07T12:14:33;23.20;;;9.27;;
17915;SDS011;9083;49.156;8.982;2022-12-07T12:17:12;14.10;;;8.00;;
17915;SDS011;9083;49.156;8.982;2022-12-07T12:19:42;19.80;;;9.53;;
17915;SDS011;9083;49.156;8.982;2022-12-07T12:22:11;39.33;;;10.27;;
17915;SDS011;9083;49.156;8.982;2022-12-07T12:24:38;18.63;;;8.43;;
17915;SDS011;9083;49.156;8.982;2022-12-07T12:27:08;20.77;;;10.33;;
17915;SDS011;9083;49.156;8.982;2022-12-07T12:29:35;25.97;;;9.10;;
17915;SDS011;9083;49.156;8.982;2022-12-07T12:32:06;85.40;;;13.07;;
17915;SDS011;9083;49.156;8.982;2022-12-07T12:34:38;22.23;;;10.07;;
17915;SDS011;9083;49.156;8.982;2022-12-07T12:37:14;28.17;;;8.50;;
17915;SDS011;9083;49.156;8.982;2022-12-07T12:40:32;12.10;;;7.60;;
17915;SDS011;9083;49.156;8.982;2022-12-07T12:43:14;15.67;;;8.13;;
17915;SDS011;9083;49.156;8.982;2022-12-07T12:48:35;18.50;;;8.33;;
17915;SDS011;9083;49.156;8.982;2022-12-07T12:53:46;17.17;;;8.47;;
17915;SDS011;9083;49.156;8.982;2022-12-07T12:56:23;12.60;;;7.87;;
17915;SDS011;9083;49.156;8.982;2022-12-07T13:01:43;16.53;;;7.67;;
17915;SDS011;9083;49.156;8.982;2022-12-07T13:04:17;23.57;;;9.70;;
17915;SDS011;9083;49.156;8.982;2022-12-07T13:06:44;13.33;;;8.13;;
17915;SDS011;9083;49.156;8.982;2022-12-07T13:09:17;14.27;;;8.03;;
17915;SDS011;9083;49.156;8.982;2022-12-07T13:11:44;16.93;;;8.40;;
17915;SDS011;9083;49.156;8.982;2022-12-07T13:16:58;16.47;;;9.03;;
17915;SDS011;9083;49.156;8.982;2022-12-07T13:22:38;17.70;;;8.13;;
17915;SDS011;9083;49.156;8.982;2022-12-07T13:25:05;22.17;;;9.07;;
17915;SDS011;9083;49.156;8.982;2022-12-07T13:27:34;19.53;;;8.53;;
17915;SDS011;9083;49.156;8.982;2022-12-07T13:30:01;31.23;;;10.20;;
17915;SDS011;9083;49.156;8.982;2022-12-07T13:32:28;14.20;;;7.10;;
17915;SDS011;9083;49.156;8.982;2022-12-07T13:34:55;19.03;;;9.10;;
17915;SDS011;9083;49.156;8.982;2022-12-07T13:37:24;20.30;;;8.10;;
17915;SDS011;9083;49.156;8.982;2022-12-07T13:39:52;23.87;;;9.60;;
17915;SDS011;9083;49.156;8.982;2022-12-07T13:42:26;21.47;;;8.60;;
17915;SDS011;9083;49.156;8.982;2022-12-07T13:44:53;14.20;;;7.83;;
17915;SDS011;9083;49.156;8.982;2022-12-07T13:47:20;70.57;;;13.70;;
17915;SDS011;9083;49.156;8.982;2022-12-07T13:49:50;18.13;;;8.77;;
17915;SDS011;9083;49.156;8.982;2022-12-07T13:52:18;15.77;;;8.60;;
17915;SDS011;9083;49.156;8.982;2022-12-07T13:54:47;60.40;;;10.77;;
17915;SDS011;9083;49.156;8.982;2022-12-07T13:57:14;15.60;;;8.27;;
17915;SDS011;9083;49.156;8.982;2022-12-07T13:59:42;19.07;;;9.47;;
17915;SDS011;9083;49.156;8.982;2022-12-07T14:02:18;16.83;;;7.33;;
17915;SDS011;9083;49.156;8.982;2022-12-07T14:04:45;27.17;;;10.10;;
17915;SDS011;9083;49.156;8.982;2022-12-07T14:07:20;13.43;;;7.97;;
17915;SDS011;9083;49.156;8.982;2022-12-07T14:09:57;19.27;;;9.40;;
17915;SDS011;9083;49.156;8.982;2022-12-07T14:12:24;23.83;;;9.30;;
17915;SDS011;9083;49.156;8.982;2022-12-07T14:14:51;19.37;;;9.33;;
17915;SDS011;9083;49.156;8.982;2022-12-07T14:17:19;31.93;;;11.97;;
17915;SDS011;9083;49.156;8.982;2022-12-07T14:19:48;23.27;;;8.80;;
17915;SDS011;9083;49.156;8.982;2022-12-07T14:22:22;18.53;;;9.53;;
17915;SDS011;9083;49.156;8.982;2022-12-07T14:24:48;23.00;;;9.63;;
17915;SDS011;9083;49.156;8.982;2022-12-07T14:27:18;16.57;;;7.90;;
17915;SDS011;9083;49.156;8.982;2022-12-07T14:29:45;34.83;;;8.43;;
17915;SDS011;9083;49.156;8.982;2022-12-07T14:32:22;20.43;;;9.53;;
17915;SDS011;9083;49.156;8.982;2022-12-07T14:34:56;20.80;;;10.07;;
17915;SDS011;9083;49.156;8.982;2022-12-07T14:37:24;21.37;;;8.63;;
17915;SDS011;9083;49.156;8.982;2022-12-07T14:39:51;36.07;;;10.23;;
17915;SDS011;9083;49.156;8.982;2022-12-07T14:42:17;28.60;;;10.00;;
17915;SDS011;9083;49.156;8.982;2022-12-07T14:44:44;17.67;;;8.73;;
17915;SDS011;9083;49.156;8.982;2022-12-07T14:47:11;18.33;;;8.73;;
17915;SDS011;9083;49.156;8.982;2022-12-07T14:49:38;20.07;;;9.77;;
17915;SDS011;9083;49.156;8.982;2022-12-07T14:52:05;18.43;;;8.93;;
17915;SDS011;9083;49.156;8.982;2022-12-07T14:54:33;18.33;;;9.37;;
17915;SDS011;9083;49.156;8.982;2022-12-07T14:57:00;14.07;;;8.07;;
17915;SDS011;9083;49.156;8.982;2022-12-07T14:59:26;14.27;;;7.97;;
17915;SDS011;9083;49.156;8.982;2022-12-07T15:01:53;17.10;;;8.40;;
17915;SDS011;9083;49.156;8.982;2022-12-07T15:04:19;18.40;;;7.83;;
17915;SDS011;9083;49.156;8.982;2022-12-07T15:06:54;21.47;;;9.13;;
17915;SDS011;9083;49.156;8.982;2022-12-07T15:09:20;16.13;;;8.93;;
17915;SDS011;9083;49.156;8.982;2022-12-07T15:11:48;17.50;;;9.33;;
17915;SDS011;9083;49.156;8.982;2022-12-07T15:14:14;20.17;;;10.07;;